TimeEDT,TemperatureF,Dew PointF,Humidity,Sea Level PressureIn,VisibilityMPH,Wind Direction,Wind SpeedMPH,Gust SpeedMPH,PrecipitationIn,Events,Conditions,WindDirDegrees,DateUTC
12:51 AM,30.0,18.0,61,30.04,-9999.0,West,4.6,-,N/A,,Unknown,280,2014-03-21 04:51:00
1:51 AM,30.0,19.0,64,30.04,-9999.0,WNW,8.1,-,N/A,,Unknown,300,2014-03-21 05:51:00
2:51 AM,28.9,18.0,64,30.06,-9999.0,WNW,5.8,-,N/A,,Unknown,300,2014-03-21 06:51:00
3:51 AM,28.0,18.0,66,30.06,-9999.0,WNW,4.6,-,N/A,,Unknown,300,2014-03-21 07:51:00
4:51 AM,27.0,19.9,75,30.05,-9999.0,Calm,Calm,-,N/A,,Unknown,0,2014-03-21 08:51:00
5:51 AM,25.0,19.0,78,30.06,-9999.0,Calm,Calm,-,N/A,,Unknown,0,2014-03-21 09:51:00
6:51 AM,21.9,18.0,85,30.06,-9999.0,Calm,Calm,-,N/A,,Unknown,0,2014-03-21 10:51:00
7:51 AM,21.0,17.1,85,30.09,-9999.0,Calm,Calm,-,N/A,,Unknown,0,2014-03-21 11:51:00
8:51 AM,27.0,19.9,75,30.10,-9999.0,Calm,Calm,-,N/A,,Unknown,0,2014-03-21 12:51:00
9:51 AM,30.0,21.0,69,30.11,-9999.0,Calm,Calm,-,N/A,,Unknown,0,2014-03-21 13:51:00
10:51 AM,30.0,21.9,72,30.09,-9999.0,ENE,4.6,-,N/A,,Unknown,70,2014-03-21 14:51:00
11:51 AM,30.9,23.0,72,30.10,-9999.0,East,6.9,-,N/A,,Unknown,100,2014-03-21 15:51:00
12:51 PM,32.0,24.1,73,30.09,-9999.0,East,10.4,-,N/A,,Unknown,100,2014-03-21 16:51:00
1:51 PM,34.0,21.0,59,30.08,-9999.0,SE,8.1,-,N/A,,Unknown,140,2014-03-21 17:51:00
2:51 PM,32.0,25.0,75,30.05,-9999.0,ESE,16.1,-,N/A,,Unknown,110,2014-03-21 18:51:00
3:51 PM,32.0,24.1,73,30.03,-9999.0,ESE,15.0,-,N/A,,Unknown,120,2014-03-21 19:51:00
4:51 PM,32.0,24.1,73,30.00,-9999.0,ESE,15.0,-,N/A,,Unknown,120,2014-03-21 20:51:00
5:51 PM,30.0,21.9,72,29.96,-9999.0,SE,15.0,-,N/A,,Unknown,130,2014-03-21 21:51:00
6:51 PM,30.9,23.0,72,29.92,-9999.0,ESE,17.3,-,N/A,,Unknown,120,2014-03-21 22:51:00
7:51 PM,30.0,23.0,75,29.94,-9999.0,SE,5.8,-,N/A,,Unknown,140,2014-03-21 23:51:00
8:51 PM,32.0,24.1,73,29.91,-9999.0,SE,10.4,-,N/A,,Unknown,140,2014-03-22 00:51:00
9:51 PM,32.0,26.1,79,29.83,-9999.0,ESE,13.8,-,N/A,,Unknown,120,2014-03-22 01:51:00
10:51 PM,32.0,27.0,82,29.80,-9999.0,ESE,13.8,-,N/A,,Unknown,120,2014-03-22 02:51:00
11:51 PM,30.0,28.0,92,29.78,-9999.0,SE,10.4,-,0.13,,Unknown,140,2014-03-22 03:51:00